createdAt,value
2022-08-12T00:02:03.736Z,2.40
2022-08-12T00:04:52.216Z,2.37
2022-08-12T00:07:39.621Z,2.60
2022-08-12T00:10:28.916Z,2.70
2022-08-12T00:13:16.709Z,2.40
2022-08-12T00:16:03.649Z,2.70
2022-08-12T00:18:49.520Z,2.87
2022-08-12T00:21:37.968Z,2.43
2022-08-12T00:24:24.720Z,2.20
2022-08-12T00:27:12.889Z,3.03
2022-08-12T00:29:58.900Z,2.50
2022-08-12T00:32:56.596Z,2.37
2022-08-12T00:35:42.677Z,2.40
2022-08-12T00:38:32.614Z,2.80
2022-08-12T00:41:19.166Z,2.77
2022-08-12T00:43:49.482Z,2.57
2022-08-12T00:46:32.439Z,2.70
2022-08-12T00:49:01.750Z,2.80
2022-08-12T00:51:52.859Z,2.43
2022-08-12T00:54:21.026Z,2.17
2022-08-12T00:56:51.017Z,2.77
2022-08-12T00:59:20.685Z,2.10
2022-08-12T01:02:02.293Z,3.10
2022-08-12T01:04:57.423Z,2.60
2022-08-12T01:07:45.498Z,2.33
2022-08-12T01:10:32.991Z,2.50
2022-08-12T01:13:18.336Z,2.23
2022-08-12T01:15:51.117Z,2.70
2022-08-12T01:18:20.835Z,2.53
2022-08-12T01:20:55.843Z,2.20
2022-08-12T01:23:43.430Z,2.40
2022-08-12T01:26:19.289Z,2.73
2022-08-12T01:28:50.155Z,2.40
2022-08-12T01:31:20.523Z,2.90
2022-08-12T01:33:59.635Z,2.20
2022-08-12T01:36:28.936Z,2.23
2022-08-12T01:39:00.099Z,1.90
2022-08-12T01:41:32.519Z,2.70
2022-08-12T01:44:02.364Z,2.30
2022-08-12T01:46:51.983Z,2.23
2022-08-12T01:49:45.024Z,2.50
2022-08-12T01:52:25.386Z,2.50
2022-08-12T01:54:55.586Z,2.10
2022-08-12T01:57:59.517Z,2.50
2022-08-12T02:00:54.815Z,2.30
2022-08-12T02:04:02.337Z,3.10
2022-08-12T02:06:55.304Z,2.50
2022-08-12T02:09:52.320Z,2.87
2022-08-12T02:12:33.086Z,2.80
2022-08-12T02:15:13.296Z,2.97
2022-08-12T02:17:57.058Z,2.63
2022-08-12T02:20:35.279Z,3.00
2022-08-12T02:23:27.993Z,2.80
2022-08-12T02:26:05.826Z,3.30
2022-08-12T02:28:34.607Z,2.47
2022-08-12T02:31:09.970Z,2.97
2022-08-12T02:33:38.637Z,2.97
2022-08-12T02:36:09.484Z,2.70
2022-08-12T02:38:43.821Z,2.60
2022-08-12T02:41:16.340Z,2.80
2022-08-12T02:43:51.307Z,2.83
2022-08-12T02:46:27.557Z,2.90
2022-08-12T02:49:00.710Z,2.90
2022-08-12T02:51:31.803Z,2.77
2022-08-12T02:54:05.898Z,2.73
2022-08-12T02:56:37.393Z,2.70
2022-08-12T02:59:06.657Z,3.20
2022-08-12T03:01:47.445Z,2.43
2022-08-12T03:04:26.683Z,2.50
2022-08-12T03:07:05.643Z,2.67
2022-08-12T03:10:03.376Z,3.10
2022-08-12T03:12:33.981Z,2.30
2022-08-12T03:15:07.083Z,3.00
2022-08-12T03:17:43.838Z,2.80
2022-08-12T03:20:17.870Z,2.60
2022-08-12T03:22:49.179Z,2.93
2022-08-12T03:25:21.611Z,2.73
2022-08-12T03:27:55.989Z,2.73
2022-08-12T03:30:25.252Z,2.40
2022-08-12T03:32:57.248Z,2.63
2022-08-12T03:35:40.133Z,2.50
2022-08-12T03:38:16.210Z,2.57
2022-08-12T03:41:15.449Z,2.70
2022-08-12T03:44:10.444Z,2.67
2022-08-12T03:47:00.683Z,2.50
2022-08-12T03:49:47.862Z,2.40
2022-08-12T03:52:33.958Z,2.83
2022-08-12T03:55:22.176Z,2.40
2022-08-12T03:58:07.873Z,2.50
2022-08-12T04:00:37.986Z,2.50
2022-08-12T04:03:26.263Z,2.30
2022-08-12T04:05:56.926Z,2.80
2022-08-12T04:08:27.141Z,2.83
2022-08-12T04:11:13.682Z,2.50
2022-08-12T04:13:41.798Z,2.30
2022-08-12T04:16:14.464Z,2.13
2022-08-12T04:18:43.330Z,2.40
2022-08-12T04:21:12.974Z,2.60
2022-08-12T04:23:48.249Z,2.77
2022-08-12T04:26:17.334Z,2.40
2022-08-12T04:28:45.952Z,3.30
2022-08-12T04:31:14.468Z,2.80
2022-08-12T04:33:43.890Z,2.60
2022-08-12T04:36:13.385Z,2.87
2022-08-12T04:38:43.263Z,2.43
2022-08-12T04:41:11.860Z,2.80
2022-08-12T04:44:01.592Z,2.60
2022-08-12T04:46:33.566Z,2.70
2022-08-12T04:49:03.718Z,2.83
2022-08-12T04:51:36.940Z,2.37
2022-08-12T04:54:05.812Z,3.27
2022-08-12T04:56:35.623Z,2.70
2022-08-12T04:59:07.809Z,3.00
2022-08-12T05:01:37.206Z,2.70
2022-08-12T05:04:06.662Z,2.80
2022-08-12T05:06:36.268Z,3.07
2022-08-12T05:09:13.169Z,2.90
2022-08-12T05:11:54.145Z,2.53
2022-08-12T05:14:24.002Z,2.30
2022-08-12T05:16:53.111Z,2.80
2022-08-12T05:19:22.510Z,2.50
2022-08-12T05:21:52.323Z,3.10
2022-08-12T05:24:20.323Z,2.90
2022-08-12T05:26:51.922Z,3.20
2022-08-12T05:30:07.125Z,2.57
2022-08-12T05:32:11.417Z,2.17
2022-08-12T05:34:39.505Z,3.00
2022-08-12T05:37:08.908Z,2.63
2022-08-12T05:39:37.036Z,2.30
2022-08-12T05:42:06.701Z,2.33
2022-08-12T05:44:37.115Z,2.87
2022-08-12T05:47:07.177Z,2.37
2022-08-12T05:49:41.035Z,2.60
2022-08-12T05:52:11.411Z,2.70
2022-08-12T05:54:57.088Z,2.87
2022-08-12T05:57:25.817Z,3.70
2022-08-12T05:59:55.922Z,2.73
2022-08-12T06:02:26.578Z,2.63
2022-08-12T06:04:54.636Z,2.60
2022-08-12T06:08:00.630Z,2.30
2022-08-12T06:10:13.583Z,2.70
2022-08-12T06:12:42.395Z,3.03
2022-08-12T06:15:11.670Z,2.97
2022-08-12T06:17:39.564Z,2.37
2022-08-12T06:20:26.367Z,2.30
2022-08-12T06:22:59.045Z,2.87
2022-08-12T06:25:29.252Z,2.00
2022-08-12T06:28:07.345Z,2.50
2022-08-12T06:30:39.144Z,2.67
2022-08-12T06:33:53.852Z,2.50
2022-08-12T06:35:58.909Z,2.10
2022-08-12T06:38:32.319Z,2.13
2022-08-12T06:41:19.525Z,1.87
2022-08-12T06:44:05.959Z,2.33
2022-08-12T06:46:38.894Z,2.23
2022-08-12T06:49:08.623Z,2.20
2022-08-12T06:51:36.507Z,2.33
2022-08-12T06:54:07.170Z,2.10
2022-08-12T06:59:24.494Z,2.80
2022-08-12T07:01:52.431Z,2.53
2022-08-12T07:04:38.374Z,2.27
2022-08-12T07:07:08.354Z,2.10
2022-08-12T07:10:04.268Z,2.40
2022-08-12T07:12:33.929Z,2.10
2022-08-12T07:15:02.542Z,1.80
2022-08-12T07:17:35.904Z,2.20
2022-08-12T07:20:06.416Z,1.83
2022-08-12T07:22:34.688Z,2.40
2022-08-12T07:25:21.681Z,2.13
2022-08-12T07:27:54.226Z,2.27
2022-08-12T07:30:22.962Z,2.30
2022-08-12T07:32:51.432Z,2.20
2022-08-12T07:35:20.419Z,2.10
2022-08-12T07:37:50.461Z,2.30
2022-08-12T07:40:22.473Z,2.10
2022-08-12T07:42:50.496Z,2.63
2022-08-12T07:45:20.330Z,2.57
2022-08-12T07:47:51.421Z,2.00
2022-08-12T07:50:23.731Z,1.90
2022-08-12T07:52:52.038Z,1.83
2022-08-12T07:55:49.218Z,2.00
2022-08-12T07:58:17.437Z,1.90
2022-08-12T08:00:45.439Z,1.83
2022-08-12T08:03:17.048Z,1.90
2022-08-12T08:05:46.442Z,1.80
2022-08-12T08:08:16.448Z,1.90
2022-08-12T08:10:45.048Z,1.60
2022-08-12T08:13:13.766Z,1.50
2022-08-12T08:16:02.508Z,1.70
2022-08-12T08:18:30.193Z,1.67
2022-08-12T08:20:58.294Z,1.73
2022-08-12T08:23:55.656Z,1.50
2022-08-12T08:26:25.795Z,1.50
2022-08-12T08:28:55.091Z,1.70
2022-08-12T08:31:23.144Z,1.80
2022-08-12T08:34:09.688Z,1.70
2022-08-12T08:36:40.583Z,1.63
2022-08-12T08:39:11.503Z,1.70
2022-08-12T08:42:17.301Z,1.70
2022-08-12T08:44:47.255Z,1.70
2022-08-12T08:47:23.311Z,1.53
2022-08-12T08:49:51.326Z,1.80
2022-08-12T08:52:39.878Z,1.93
2022-08-12T08:55:10.289Z,1.90
2022-08-12T09:00:30.622Z,1.80
2022-08-12T09:02:59.948Z,1.73
2022-08-12T09:05:43.240Z,1.90
2022-08-12T09:08:23.019Z,1.73
2022-08-12T09:11:00.059Z,1.53
2022-08-12T09:16:23.957Z,1.83
2022-08-12T09:18:53.628Z,1.60
2022-08-12T09:21:22.904Z,1.70
2022-08-12T09:26:46.656Z,1.80
2022-08-12T09:29:15.624Z,1.67
2022-08-12T09:32:07.337Z,1.90
2022-08-12T09:34:34.137Z,1.70
2022-08-12T09:37:19.282Z,2.93
2022-08-12T09:40:05.968Z,2.07
2022-08-12T09:43:17.736Z,1.60
2022-08-12T09:46:20.134Z,1.60
2022-08-12T09:48:40.206Z,1.40
2022-08-12T09:51:20.335Z,2.00
2022-08-12T09:54:09.061Z,1.77
2022-08-12T09:57:03.210Z,1.20
2022-08-12T10:00:16.972Z,1.60
2022-08-12T10:02:44.566Z,1.30
2022-08-12T10:05:09.205Z,1.60
2022-08-12T10:07:44.042Z,1.40
2022-08-12T10:10:25.145Z,1.60
2022-08-12T10:13:34.496Z,1.63
2022-08-12T10:16:06.193Z,1.33
2022-08-12T10:18:51.302Z,1.40
2022-08-12T10:21:35.664Z,1.30
2022-08-12T10:24:06.366Z,1.30
2022-08-12T10:26:52.838Z,1.30
2022-08-12T10:30:37.842Z,1.70
2022-08-12T10:32:43.125Z,1.70
2022-08-12T10:35:16.614Z,1.50
2022-08-12T10:38:36.337Z,1.40
2022-08-12T10:40:55.168Z,1.50
2022-08-12T10:43:55.684Z,1.50
2022-08-12T10:46:30.856Z,3.10
2022-08-12T10:49:07.020Z,1.60
2022-08-12T10:52:33.190Z,1.70
2022-08-12T10:54:49.248Z,1.50
2022-08-12T10:57:50.391Z,1.90
2022-08-12T11:00:33.665Z,1.57
2022-08-12T11:04:23.370Z,1.40
2022-08-12T11:07:07.901Z,1.40
2022-08-12T11:08:43.286Z,1.70
2022-08-12T11:12:07.493Z,1.67
2022-08-12T11:14:06.830Z,1.33
2022-08-12T11:17:34.712Z,1.40
2022-08-12T11:19:46.255Z,1.20
2022-08-12T11:22:14.379Z,1.60
2022-08-12T11:24:51.328Z,1.60
2022-08-12T11:27:21.376Z,1.60
2022-08-12T11:30:01.707Z,1.43
2022-08-12T11:32:38.832Z,1.10
2022-08-12T11:35:11.548Z,1.50
2022-08-12T11:37:57.930Z,1.20
2022-08-12T11:40:28.557Z,1.20
2022-08-12T11:43:17.175Z,1.27
2022-08-12T11:45:53.086Z,1.50
2022-08-12T11:48:26.653Z,1.53
2022-08-12T11:50:56.147Z,1.40
2022-08-12T11:53:58.403Z,1.30
2022-08-12T11:56:17.025Z,1.17
2022-08-12T12:01:59.098Z,1.33
2022-08-12T12:02:02.187Z,1.50
2022-08-12T12:04:29.013Z,1.57
2022-08-12T12:07:07.512Z,1.30
2022-08-12T12:09:52.314Z,1.00
2022-08-12T12:12:23.374Z,1.13
2022-08-12T12:14:54.796Z,1.40
2022-08-12T12:17:24.548Z,1.40
2022-08-12T12:19:53.113Z,1.50
2022-08-12T12:22:30.881Z,1.47
2022-08-12T12:24:59.364Z,1.43
2022-08-12T12:28:04.437Z,1.23
2022-08-12T12:30:37.336Z,1.17
2022-08-12T12:33:09.731Z,1.27
2022-08-12T12:36:18.299Z,1.30
2022-08-12T12:38:33.912Z,1.40
2022-08-12T12:41:16.497Z,1.30
2022-08-12T12:44:03.831Z,1.50
2022-08-12T12:46:33.908Z,1.20
2022-08-12T12:49:10.837Z,1.30
2022-08-12T12:52:06.808Z,1.50
2022-08-12T12:54:32.177Z,1.60
2022-08-12T12:57:00.038Z,1.30
2022-08-12T12:59:56.661Z,1.40
2022-08-12T13:02:31.623Z,1.10
2022-08-12T13:05:00.229Z,1.67
2022-08-12T13:07:54.491Z,1.43
2022-08-12T13:10:23.912Z,1.20
2022-08-12T13:12:52.918Z,1.60
2022-08-12T13:15:45.487Z,1.47
2022-08-12T13:18:14.560Z,1.40
2022-08-12T13:20:44.702Z,1.83
2022-08-12T13:23:36.583Z,1.33
2022-08-12T13:26:02.127Z,1.40
2022-08-12T13:28:33.727Z,1.20
2022-08-12T13:31:03.081Z,1.53
2022-08-12T13:34:33.985Z,1.40
2022-08-12T13:36:23.168Z,1.10
2022-08-12T13:38:54.209Z,2.03
2022-08-12T13:41:35.949Z,1.43
2022-08-12T13:44:10.497Z,1.30
2022-08-12T13:46:40.811Z,1.30
2022-08-12T13:49:17.351Z,1.57
2022-08-12T13:51:51.069Z,1.40
2022-08-12T13:54:19.493Z,1.60
2022-08-12T13:56:51.424Z,1.47
2022-08-12T13:59:24.491Z,1.30
2022-08-12T14:01:56.983Z,1.37
2022-08-12T14:04:27.443Z,1.30
2022-08-12T14:06:55.515Z,1.50
2022-08-12T14:09:23.546Z,1.47
2022-08-12T14:11:59.216Z,1.33
2022-08-12T14:14:31.110Z,1.40
2022-08-12T14:17:05.185Z,1.37
2022-08-12T14:19:45.154Z,1.50
2022-08-12T14:22:26.122Z,1.67
2022-08-12T14:24:55.218Z,1.20
2022-08-12T14:28:04.769Z,1.20
2022-08-12T14:30:28.817Z,0.93
2022-08-12T14:32:57.804Z,1.43
2022-08-12T14:35:27.449Z,1.60
2022-08-12T14:37:58.933Z,1.30
2022-08-12T14:40:29.591Z,1.30
2022-08-12T14:42:58.954Z,1.20
2022-08-12T14:45:45.031Z,1.10
2022-08-12T14:48:18.383Z,1.40
2022-08-12T14:51:09.449Z,1.20
2022-08-12T14:59:57.618Z,1.10
2022-08-12T15:02:28.480Z,1.23
2022-08-12T15:04:58.801Z,1.20
2022-08-12T15:07:34.272Z,1.00
2022-08-12T15:10:31.059Z,1.17
2022-08-12T15:13:07.318Z,1.27
2022-08-12T15:15:43.812Z,1.43
2022-08-12T15:18:21.530Z,1.40
2022-08-12T15:20:50.985Z,1.20
2022-08-12T15:23:22.604Z,1.27
2022-08-12T15:26:02.885Z,1.17
2022-08-12T15:28:33.757Z,1.53
2022-08-12T15:31:02.623Z,1.23
2022-08-12T15:33:45.257Z,1.23
2022-08-12T15:36:19.582Z,1.70
2022-08-12T15:39:16.733Z,1.07
2022-08-12T15:41:49.682Z,1.30
2022-08-12T15:44:38.595Z,1.20
2022-08-12T15:47:10.935Z,1.13
2022-08-12T15:49:54.610Z,1.67
2022-08-12T15:52:28.703Z,1.50
2022-08-12T15:55:05.923Z,1.27
2022-08-12T15:57:34.805Z,1.60
2022-08-12T16:00:09.208Z,1.50
2022-08-12T16:02:51.618Z,1.20
2022-08-12T16:06:12.577Z,1.40
2022-08-12T16:08:17.455Z,0.90
2022-08-12T16:10:50.512Z,1.40
2022-08-12T16:13:32.400Z,1.20
2022-08-12T16:16:04.281Z,1.20
2022-08-12T16:18:51.895Z,1.20
2022-08-12T16:21:50.414Z,1.80
2022-08-12T16:24:11.028Z,1.47
2022-08-12T16:26:40.778Z,1.00
2022-08-12T16:29:15.519Z,0.90
2022-08-12T16:31:46.619Z,1.10
2022-08-12T16:34:25.922Z,0.98
2022-08-12T16:37:09.394Z,0.77
2022-08-12T16:39:59.558Z,1.00
2022-08-12T16:42:28.302Z,1.05
2022-08-12T16:45:02.060Z,1.00
2022-08-12T16:47:38.596Z,1.50
2022-08-12T16:50:30.781Z,1.00
2022-08-12T16:53:02.496Z,0.90
2022-08-12T16:55:42.442Z,0.98
2022-08-12T16:58:28.175Z,0.93
2022-08-12T17:01:01.994Z,0.80
2022-08-12T17:03:33.811Z,1.10
2022-08-12T17:06:08.973Z,1.10
2022-08-12T17:08:49.222Z,1.10
2022-08-12T17:11:23.610Z,1.00
2022-08-12T17:13:54.392Z,1.40
2022-08-12T17:16:24.204Z,1.37
2022-08-12T17:18:59.580Z,1.20
2022-08-12T17:21:41.767Z,1.10
2022-08-12T17:24:30.502Z,1.07
2022-08-12T17:27:00.343Z,1.57
2022-08-12T17:30:00.623Z,2.10
2022-08-12T17:32:28.289Z,1.30
2022-08-12T17:35:16.661Z,1.30
2022-08-12T17:37:45.647Z,1.20
2022-08-12T17:40:34.448Z,1.20
2022-08-12T17:43:55.762Z,0.90
2022-08-12T17:46:01.996Z,1.10
2022-08-12T17:48:38.771Z,0.83
2022-08-12T17:51:15.359Z,1.10
2022-08-12T17:54:10.493Z,1.20
2022-08-12T17:56:37.176Z,1.80
2022-08-12T17:59:07.596Z,1.40
2022-08-12T18:01:37.558Z,1.00
2022-08-12T18:04:21.213Z,1.50
2022-08-12T18:06:53.006Z,1.30
2022-08-12T18:09:24.705Z,1.63
2022-08-12T18:12:24.555Z,1.73
2022-08-12T18:14:58.654Z,2.10
2022-08-12T18:17:29.173Z,1.23
2022-08-12T18:20:05.312Z,1.10
2022-08-12T18:22:38.703Z,1.30
2022-08-12T18:26:11.445Z,1.30
2022-08-12T18:28:15.672Z,1.10
2022-08-12T18:30:52.828Z,1.10
2022-08-12T18:33:26.197Z,1.30
2022-08-12T18:35:56.778Z,1.53
2022-08-12T18:38:26.905Z,3.17
2022-08-12T18:41:21.722Z,2.80
2022-08-12T18:44:00.003Z,2.30
2022-08-12T18:46:34.945Z,2.20
2022-08-12T18:49:18.797Z,2.47
2022-08-12T18:51:55.304Z,2.10
2022-08-12T18:54:36.251Z,1.80
2022-08-12T18:57:16.332Z,1.43
2022-08-12T19:00:01.925Z,1.10
2022-08-12T19:02:39.994Z,1.80
2022-08-12T19:05:17.608Z,1.50
2022-08-12T19:08:01.084Z,1.70
2022-08-12T19:10:32.713Z,2.00
2022-08-12T19:13:23.114Z,1.80
2022-08-12T19:15:58.091Z,1.50
2022-08-12T19:18:29.815Z,1.53
2022-08-12T19:21:06.677Z,2.30
2022-08-12T19:23:43.805Z,1.83
2022-08-12T19:26:12.796Z,1.80
2022-08-12T19:28:41.657Z,2.30
2022-08-12T19:31:58.371Z,4.10
2022-08-12T19:34:55.865Z,2.60
2022-08-12T19:37:19.956Z,2.30
2022-08-12T19:40:09.871Z,2.17
2022-08-12T19:42:44.400Z,2.43
2022-08-12T19:45:18.732Z,1.60
2022-08-12T19:47:50.471Z,1.50
2022-08-12T19:50:19.923Z,1.93
2022-08-12T19:52:53.482Z,1.50
2022-08-12T19:55:24.101Z,1.30
2022-08-12T19:58:02.710Z,2.00
2022-08-12T20:00:35.216Z,1.60
2022-08-12T20:03:06.190Z,2.03
2022-08-12T20:06:05.124Z,2.20
2022-08-12T20:08:31.655Z,2.00
2022-08-12T20:12:12.226Z,2.20
2022-08-12T20:14:00.783Z,1.80
2022-08-12T20:16:57.522Z,2.50
2022-08-12T20:19:28.528Z,1.47
2022-08-12T20:22:23.378Z,1.40
2022-08-12T20:24:56.717Z,1.33
2022-08-12T20:27:29.366Z,1.83
2022-08-12T20:30:14.031Z,1.70
2022-08-12T20:32:53.850Z,1.83
2022-08-12T20:35:24.742Z,2.17
2022-08-12T20:38:06.207Z,1.87
2022-08-12T20:40:48.987Z,1.60
2022-08-12T20:43:18.947Z,1.53
2022-08-12T20:45:57.889Z,1.53
2022-08-12T20:48:29.360Z,1.30
2022-08-12T20:51:04.696Z,1.40
2022-08-12T20:53:58.164Z,1.90
2022-08-12T20:56:30.990Z,1.57
2022-08-12T20:59:02.468Z,1.80
2022-08-12T21:01:46.576Z,1.47
2022-08-12T21:04:36.869Z,1.43
2022-08-12T21:07:08.959Z,1.87
2022-08-12T21:09:41.954Z,1.77
2022-08-12T21:12:28.527Z,1.87
2022-08-12T21:15:17.400Z,1.63
2022-08-12T21:18:10.621Z,1.60
2022-08-12T21:20:50.576Z,1.93
2022-08-12T21:23:21.058Z,1.90
2022-08-12T21:25:51.249Z,2.30
2022-08-12T21:28:27.801Z,1.60
2022-08-12T21:32:35.120Z,1.40
2022-08-12T21:34:08.979Z,1.40
2022-08-12T21:36:40.033Z,1.90
2022-08-12T21:39:18.106Z,1.97
2022-08-12T21:41:50.950Z,1.20
2022-08-12T21:44:24.395Z,1.50
2022-08-12T21:47:21.575Z,1.50
2022-08-12T21:50:02.512Z,1.37
2022-08-12T21:52:36.153Z,1.53
2022-08-12T21:55:08.023Z,1.40
2022-08-12T21:57:50.588Z,2.00
2022-08-12T22:00:32.920Z,1.53
2022-08-12T22:04:01.245Z,1.73
2022-08-12T22:06:31.093Z,1.27
2022-08-12T22:09:16.113Z,2.60
2022-08-12T22:11:58.591Z,2.97
2022-08-12T22:14:29.592Z,2.20
2022-08-12T22:17:01.201Z,2.10
2022-08-12T22:19:33.739Z,1.87
2022-08-12T22:22:05.171Z,1.67
2022-08-12T22:24:34.023Z,1.70
2022-08-12T22:27:08.084Z,2.30
2022-08-12T22:30:09.155Z,1.93
2022-08-12T22:32:44.677Z,1.90
2022-08-12T22:35:47.445Z,1.63
2022-08-12T22:38:24.086Z,1.40
2022-08-12T22:40:58.459Z,1.43
2022-08-12T22:43:59.717Z,1.40
2022-08-12T22:46:52.530Z,1.60
2022-08-12T22:49:36.373Z,1.63
2022-08-12T22:52:08.633Z,1.80
2022-08-12T22:54:37.775Z,1.53
2022-08-12T22:57:48.790Z,1.47
2022-08-12T23:00:24.423Z,2.00
2022-08-12T23:02:58.360Z,2.03
2022-08-12T23:05:57.254Z,2.13
2022-08-12T23:08:29.924Z,1.60
2022-08-12T23:11:06.156Z,1.53
2022-08-12T23:13:54.886Z,1.53
2022-08-12T23:16:30.661Z,1.70
2022-08-12T23:19:09.718Z,1.63
2022-08-12T23:22:05.471Z,1.67
2022-08-12T23:24:55.727Z,2.13
2022-08-12T23:27:44.106Z,1.80
2022-08-12T23:30:24.928Z,1.70
2022-08-12T23:32:59.552Z,1.67
2022-08-12T23:35:53.570Z,1.60
2022-08-12T23:38:30.868Z,1.70
2022-08-12T23:41:05.484Z,1.63
2022-08-12T23:43:38.966Z,1.47
2022-08-12T23:46:11.144Z,1.50
2022-08-12T23:48:41.315Z,2.10
2022-08-12T23:51:23.080Z,1.63
2022-08-12T23:53:56.167Z,1.50
2022-08-12T23:56:25.326Z,1.53
2022-08-12T23:58:55.187Z,1.40
